sensor_id;sensor_type;location;lat;lon;timestamp;P1;durP1;ratioP1;P2;durP2;ratioP2
48911;SDS011;34722;52.108;5.044;2023-04-06T00:00:02;22.90;;;13.60;;
48911;SDS011;34722;52.108;5.044;2023-04-06T00:02:30;28.85;;;13.90;;
48911;SDS011;34722;52.108;5.044;2023-04-06T00:13:38;30.13;;;14.90;;
48911;SDS011;34722;52.108;5.044;2023-04-06T00:18:39;22.85;;;12.35;;
48911;SDS011;34722;52.108;5.044;2023-04-06T00:21:05;23.25;;;13.68;;
48911;SDS011;34722;52.108;5.044;2023-04-06T00:23:31;26.08;;;13.60;;
48911;SDS011;34722;52.108;5.044;2023-04-06T00:25:57;24.58;;;13.63;;
48911;SDS011;34722;52.108;5.044;2023-04-06T00:34:48;23.30;;;12.27;;
48911;SDS011;34722;52.108;5.044;2023-04-06T00:40:20;24.75;;;12.38;;
48911;SDS011;34722;52.108;5.044;2023-04-06T00:42:46;23.70;;;13.50;;
48911;SDS011;34722;52.108;5.044;2023-04-06T00:45:11;23.50;;;13.75;;
48911;SDS011;34722;52.108;5.044;2023-04-06T00:47:37;23.63;;;13.25;;
48911;SDS011;34722;52.108;5.044;2023-04-06T00:59:24;21.95;;;14.10;;
48911;SDS011;34722;52.108;5.044;2023-04-06T01:13:55;23.75;;;12.88;;
48911;SDS011;34722;52.108;5.044;2023-04-06T01:16:20;25.85;;;13.18;;
48911;SDS011;34722;52.108;5.044;2023-04-06T01:22:08;26.25;;;12.73;;
48911;SDS011;34722;52.108;5.044;2023-04-06T01:47:49;22.75;;;12.07;;
48911;SDS011;34722;52.108;5.044;2023-04-06T01:53:37;21.67;;;11.40;;
48911;SDS011;34722;52.108;5.044;2023-04-06T01:56:03;20.27;;;11.82;;
48911;SDS011;34722;52.108;5.044;2023-04-06T01:58:28;19.42;;;11.98;;
48911;SDS011;34722;52.108;5.044;2023-04-06T02:00:54;24.02;;;14.40;;
48911;SDS011;34722;52.108;5.044;2023-04-06T02:03:20;25.00;;;12.20;;
48911;SDS011;34722;52.108;5.044;2023-04-06T02:05:46;22.55;;;12.55;;
48911;SDS011;34722;52.108;5.044;2023-04-06T02:08:12;22.25;;;11.38;;
48911;SDS011;34722;52.108;5.044;2023-04-06T02:10:37;22.90;;;11.65;;
48911;SDS011;34722;52.108;5.044;2023-04-06T02:18:26;22.20;;;12.55;;
48911;SDS011;34722;52.108;5.044;2023-04-06T02:24:15;22.83;;;12.15;;
48911;SDS011;34722;52.108;5.044;2023-04-06T02:26:41;26.98;;;13.02;;
48911;SDS011;34722;52.108;5.044;2023-04-06T02:29:06;24.05;;;12.32;;
48911;SDS011;34722;52.108;5.044;2023-04-06T02:41:10;23.10;;;13.15;;
48911;SDS011;34722;52.108;5.044;2023-04-06T02:43:52;24.85;;;13.75;;
48911;SDS011;34722;52.108;5.044;2023-04-06T02:46:18;24.80;;;12.57;;
48911;SDS011;34722;52.108;5.044;2023-04-06T02:48:43;20.23;;;12.23;;
48911;SDS011;34722;52.108;5.044;2023-04-06T02:51:09;24.42;;;13.40;;
48911;SDS011;34722;52.108;5.044;2023-04-06T02:53:35;22.80;;;12.90;;
48911;SDS011;34722;52.108;5.044;2023-04-06T03:01:49;28.70;;;13.70;;
48911;SDS011;34722;52.108;5.044;2023-04-06T03:04:14;24.02;;;13.40;;
48911;SDS011;34722;52.108;5.044;2023-04-06T03:43:25;27.25;;;14.25;;
48911;SDS011;34722;52.108;5.044;2023-04-06T03:54:27;27.67;;;15.60;;
48911;SDS011;34722;52.108;5.044;2023-04-06T03:56:53;31.42;;;17.10;;
48911;SDS011;34722;52.108;5.044;2023-04-06T04:14:54;34.22;;;17.15;;
48911;SDS011;34722;52.108;5.044;2023-04-06T04:35:18;34.83;;;17.13;;
48911;SDS011;34722;52.108;5.044;2023-04-06T04:52:46;32.90;;;16.60;;
48911;SDS011;34722;52.108;5.044;2023-04-06T05:06:14;38.88;;;18.52;;
48911;SDS011;34722;52.108;5.044;2023-04-06T05:18:07;36.63;;;17.38;;
48911;SDS011;34722;52.108;5.044;2023-04-06T05:39:44;33.33;;;16.20;;
48911;SDS011;34722;52.108;5.044;2023-04-06T05:48:51;36.22;;;18.30;;
48911;SDS011;34722;52.108;5.044;2023-04-06T06:05:01;36.65;;;18.30;;
48911;SDS011;34722;52.108;5.044;2023-04-06T06:07:27;35.22;;;17.73;;
48911;SDS011;34722;52.108;5.044;2023-04-06T06:09:52;37.83;;;19.40;;
48911;SDS011;34722;52.108;5.044;2023-04-06T06:12:22;37.30;;;18.80;;
48911;SDS011;34722;52.108;5.044;2023-04-06T06:14:48;32.22;;;17.05;;
48911;SDS011;34722;52.108;5.044;2023-04-06T06:17:16;36.08;;;18.25;;
48911;SDS011;34722;52.108;5.044;2023-04-06T06:19:42;34.05;;;17.63;;
48911;SDS011;34722;52.108;5.044;2023-04-06T06:22:10;39.88;;;17.95;;
48911;SDS011;34722;52.108;5.044;2023-04-06T06:24:36;35.65;;;17.88;;
48911;SDS011;34722;52.108;5.044;2023-04-06T06:27:05;35.15;;;19.08;;
48911;SDS011;34722;52.108;5.044;2023-04-06T06:29:34;42.75;;;20.52;;
48911;SDS011;34722;52.108;5.044;2023-04-06T06:32:00;45.22;;;19.25;;
48911;SDS011;34722;52.108;5.044;2023-04-06T06:34:25;36.63;;;18.65;;
48911;SDS011;34722;52.108;5.044;2023-04-06T06:36:51;37.22;;;19.05;;
48911;SDS011;34722;52.108;5.044;2023-04-06T06:39:19;39.15;;;18.95;;
48911;SDS011;34722;52.108;5.044;2023-04-06T06:41:45;34.67;;;19.55;;
48911;SDS011;34722;52.108;5.044;2023-04-06T06:44:12;37.13;;;19.42;;
48911;SDS011;34722;52.108;5.044;2023-04-06T06:46:37;36.33;;;18.33;;
48911;SDS011;34722;52.108;5.044;2023-04-06T06:49:03;37.63;;;18.50;;
48911;SDS011;34722;52.108;5.044;2023-04-06T06:51:29;36.15;;;18.20;;
48911;SDS011;34722;52.108;5.044;2023-04-06T06:53:55;37.90;;;18.63;;
48911;SDS011;34722;52.108;5.044;2023-04-06T06:56:20;41.15;;;20.23;;
48911;SDS011;34722;52.108;5.044;2023-04-06T06:58:47;34.97;;;20.10;;
48911;SDS011;34722;52.108;5.044;2023-04-06T07:01:12;35.72;;;19.20;;
48911;SDS011;34722;52.108;5.044;2023-04-06T07:03:38;38.38;;;19.63;;
48911;SDS011;34722;52.108;5.044;2023-04-06T07:06:04;41.78;;;19.65;;
48911;SDS011;34722;52.108;5.044;2023-04-06T07:08:30;38.30;;;19.40;;
48911;SDS011;34722;52.108;5.044;2023-04-06T07:11:04;43.22;;;19.75;;
48911;SDS011;34722;52.108;5.044;2023-04-06T07:13:30;33.60;;;18.38;;
48911;SDS011;34722;52.108;5.044;2023-04-06T07:15:56;38.00;;;20.95;;
48911;SDS011;34722;52.108;5.044;2023-04-06T07:18:22;44.28;;;19.30;;
48911;SDS011;34722;52.108;5.044;2023-04-06T07:20:48;36.28;;;18.10;;
48911;SDS011;34722;52.108;5.044;2023-04-06T07:23:13;36.78;;;20.73;;
48911;SDS011;34722;52.108;5.044;2023-04-06T07:25:40;49.90;;;21.35;;
48911;SDS011;34722;52.108;5.044;2023-04-06T07:28:05;40.40;;;19.70;;
48911;SDS011;34722;52.108;5.044;2023-04-06T07:30:31;33.58;;;18.65;;
48911;SDS011;34722;52.108;5.044;2023-04-06T07:32:57;41.65;;;19.65;;
48911;SDS011;34722;52.108;5.044;2023-04-06T07:35:26;40.08;;;20.50;;
48911;SDS011;34722;52.108;5.044;2023-04-06T07:37:52;41.17;;;20.77;;
48911;SDS011;34722;52.108;5.044;2023-04-06T07:40:18;40.15;;;22.20;;
48911;SDS011;34722;52.108;5.044;2023-04-06T07:42:45;42.17;;;21.90;;
48911;SDS011;34722;52.108;5.044;2023-04-06T07:45:11;43.55;;;21.55;;
48911;SDS011;34722;52.108;5.044;2023-04-06T07:47:36;43.17;;;21.88;;
48911;SDS011;34722;52.108;5.044;2023-04-06T07:50:02;32.22;;;20.25;;
48911;SDS011;34722;52.108;5.044;2023-04-06T07:52:28;41.85;;;21.83;;
48911;SDS011;34722;52.108;5.044;2023-04-06T07:54:54;43.83;;;21.40;;
48911;SDS011;34722;52.108;5.044;2023-04-06T07:57:20;41.60;;;21.50;;
48911;SDS011;34722;52.108;5.044;2023-04-06T07:59:46;42.83;;;23.55;;
48911;SDS011;34722;52.108;5.044;2023-04-06T08:02:12;43.75;;;22.92;;
48911;SDS011;34722;52.108;5.044;2023-04-06T08:04:37;48.92;;;23.90;;
48911;SDS011;34722;52.108;5.044;2023-04-06T08:07:03;43.28;;;23.50;;
48911;SDS011;34722;52.108;5.044;2023-04-06T08:09:29;39.40;;;22.85;;
48911;SDS011;34722;52.108;5.044;2023-04-06T08:12:14;40.80;;;23.13;;
48911;SDS011;34722;52.108;5.044;2023-04-06T08:17:21;49.20;;;24.60;;
48911;SDS011;34722;52.108;5.044;2023-04-06T08:19:49;43.90;;;22.83;;
48911;SDS011;34722;52.108;5.044;2023-04-06T08:22:15;37.35;;;23.10;;
48911;SDS011;34722;52.108;5.044;2023-04-06T08:24:41;41.35;;;22.52;;
48911;SDS011;34722;52.108;5.044;2023-04-06T08:29:45;43.10;;;22.77;;
48911;SDS011;34722;52.108;5.044;2023-04-06T08:32:13;43.28;;;23.38;;
48911;SDS011;34722;52.108;5.044;2023-04-06T08:34:39;42.03;;;23.17;;
48911;SDS011;34722;52.108;5.044;2023-04-06T08:37:10;45.90;;;25.15;;
48911;SDS011;34722;52.108;5.044;2023-04-06T08:39:40;57.13;;;25.13;;
48911;SDS011;34722;52.108;5.044;2023-04-06T08:42:10;46.30;;;23.95;;
48911;SDS011;34722;52.108;5.044;2023-04-06T08:44:41;44.20;;;23.33;;
48911;SDS011;34722;52.108;5.044;2023-04-06T08:47:08;46.25;;;23.42;;
48911;SDS011;34722;52.108;5.044;2023-04-06T08:49:34;53.65;;;23.27;;
48911;SDS011;34722;52.108;5.044;2023-04-06T08:52:02;41.13;;;23.10;;
48911;SDS011;34722;52.108;5.044;2023-04-06T08:54:30;47.60;;;23.00;;
48911;SDS011;34722;52.108;5.044;2023-04-06T08:56:55;48.13;;;23.40;;
48911;SDS011;34722;52.108;5.044;2023-04-06T08:59:22;46.28;;;24.50;;
48911;SDS011;34722;52.108;5.044;2023-04-06T09:04:26;44.55;;;23.52;;
48911;SDS011;34722;52.108;5.044;2023-04-06T09:06:52;45.50;;;24.27;;
48911;SDS011;34722;52.108;5.044;2023-04-06T09:09:18;45.15;;;24.25;;
48911;SDS011;34722;52.108;5.044;2023-04-06T09:11:48;42.90;;;24.80;;
48911;SDS011;34722;52.108;5.044;2023-04-06T09:14:36;49.28;;;25.75;;
48911;SDS011;34722;52.108;5.044;2023-04-06T09:17:03;51.15;;;26.70;;
48911;SDS011;34722;52.108;5.044;2023-04-06T09:19:29;48.95;;;25.52;;
48911;SDS011;34722;52.108;5.044;2023-04-06T09:22:04;51.08;;;27.05;;
48911;SDS011;34722;52.108;5.044;2023-04-06T09:24:44;49.42;;;26.08;;
48911;SDS011;34722;52.108;5.044;2023-04-06T09:27:10;54.03;;;25.83;;
48911;SDS011;34722;52.108;5.044;2023-04-06T09:29:36;56.83;;;28.98;;
48911;SDS011;34722;52.108;5.044;2023-04-06T09:32:05;54.22;;;28.38;;
48911;SDS011;34722;52.108;5.044;2023-04-06T09:34:32;53.88;;;28.27;;
48911;SDS011;34722;52.108;5.044;2023-04-06T09:36:58;60.67;;;29.98;;
48911;SDS011;34722;52.108;5.044;2023-04-06T09:39:24;51.25;;;27.20;;
48911;SDS011;34722;52.108;5.044;2023-04-06T09:41:51;56.92;;;28.98;;
48911;SDS011;34722;52.108;5.044;2023-04-06T09:44:18;59.17;;;27.70;;
48911;SDS011;34722;52.108;5.044;2023-04-06T09:46:45;60.60;;;29.17;;
48911;SDS011;34722;52.108;5.044;2023-04-06T09:49:14;57.53;;;28.08;;
48911;SDS011;34722;52.108;5.044;2023-04-06T09:54:10;58.15;;;28.95;;
48911;SDS011;34722;52.108;5.044;2023-04-06T10:05:22;54.88;;;24.85;;
48911;SDS011;34722;52.108;5.044;2023-04-06T10:08:01;50.25;;;25.95;;
48911;SDS011;34722;52.108;5.044;2023-04-06T10:10:33;49.35;;;25.77;;
48911;SDS011;34722;52.108;5.044;2023-04-06T10:12:59;49.67;;;27.17;;
48911;SDS011;34722;52.108;5.044;2023-04-06T10:15:28;46.25;;;23.98;;
48911;SDS011;34722;52.108;5.044;2023-04-06T10:17:55;44.10;;;23.20;;
48911;SDS011;34722;52.108;5.044;2023-04-06T10:23:36;35.55;;;19.88;;
48911;SDS011;34722;52.108;5.044;2023-04-06T10:29:49;27.92;;;15.80;;
48911;SDS011;34722;52.108;5.044;2023-04-06T10:32:16;32.22;;;17.27;;
48911;SDS011;34722;52.108;5.044;2023-04-06T10:37:24;36.40;;;19.17;;
48911;SDS011;34722;52.108;5.044;2023-04-06T10:40:05;34.42;;;18.98;;
48911;SDS011;34722;52.108;5.044;2023-04-06T10:42:38;31.60;;;18.92;;
48911;SDS011;34722;52.108;5.044;2023-04-06T10:45:24;32.13;;;16.13;;
48911;SDS011;34722;52.108;5.044;2023-04-06T10:48:00;30.98;;;15.13;;
48911;SDS011;34722;52.108;5.044;2023-04-06T10:50:26;28.67;;;15.10;;
48911;SDS011;34722;52.108;5.044;2023-04-06T10:52:59;28.40;;;15.93;;
48911;SDS011;34722;52.108;5.044;2023-04-06T10:55:51;26.45;;;15.25;;
48911;SDS011;34722;52.108;5.044;2023-04-06T10:58:24;29.83;;;15.75;;
48911;SDS011;34722;52.108;5.044;2023-04-06T11:01:05;25.42;;;15.27;;
48911;SDS011;34722;52.108;5.044;2023-04-06T11:03:31;29.02;;;15.75;;
48911;SDS011;34722;52.108;5.044;2023-04-06T11:06:06;26.92;;;14.65;;
48911;SDS011;34722;52.108;5.044;2023-04-06T11:08:53;26.88;;;14.20;;
48911;SDS011;34722;52.108;5.044;2023-04-06T11:11:23;26.30;;;15.00;;
48911;SDS011;34722;52.108;5.044;2023-04-06T11:13:58;24.95;;;14.48;;
48911;SDS011;34722;52.108;5.044;2023-04-06T11:18:54;25.45;;;14.27;;
48911;SDS011;34722;52.108;5.044;2023-04-06T11:24:23;24.75;;;14.55;;
48911;SDS011;34722;52.108;5.044;2023-04-06T11:26:50;26.55;;;13.65;;
48911;SDS011;34722;52.108;5.044;2023-04-06T11:29:18;24.85;;;13.45;;
48911;SDS011;34722;52.108;5.044;2023-04-06T11:34:19;24.92;;;15.05;;
48911;SDS011;34722;52.108;5.044;2023-04-06T11:36:54;27.05;;;14.57;;
48911;SDS011;34722;52.108;5.044;2023-04-06T11:39:24;23.23;;;14.43;;
48911;SDS011;34722;52.108;5.044;2023-04-06T11:41:52;28.58;;;14.82;;
48911;SDS011;34722;52.108;5.044;2023-04-06T11:44:42;22.98;;;13.50;;
48911;SDS011;34722;52.108;5.044;2023-04-06T11:47:11;27.85;;;15.15;;
48911;SDS011;34722;52.108;5.044;2023-04-06T11:49:38;29.33;;;15.27;;
48911;SDS011;34722;52.108;5.044;2023-04-06T11:52:15;27.55;;;14.27;;
48911;SDS011;34722;52.108;5.044;2023-04-06T11:54:41;26.45;;;14.80;;
48911;SDS011;34722;52.108;5.044;2023-04-06T11:57:10;26.00;;;14.40;;
48911;SDS011;34722;52.108;5.044;2023-04-06T12:02:24;27.25;;;15.05;;
48911;SDS011;34722;52.108;5.044;2023-04-06T12:07:28;28.17;;;14.68;;
48911;SDS011;34722;52.108;5.044;2023-04-06T12:13:32;26.35;;;14.40;;
48911;SDS011;34722;52.108;5.044;2023-04-06T12:15:58;26.52;;;15.00;;
48911;SDS011;34722;52.108;5.044;2023-04-06T12:18:23;30.42;;;17.15;;
48911;SDS011;34722;52.108;5.044;2023-04-06T12:20:50;33.60;;;16.92;;
48911;SDS011;34722;52.108;5.044;2023-04-06T12:23:16;28.90;;;16.55;;
48911;SDS011;34722;52.108;5.044;2023-04-06T12:25:43;34.28;;;17.30;;
48911;SDS011;34722;52.108;5.044;2023-04-06T12:28:09;30.80;;;16.38;;
48911;SDS011;34722;52.108;5.044;2023-04-06T12:30:38;31.85;;;16.30;;
48911;SDS011;34722;52.108;5.044;2023-04-06T12:33:08;32.38;;;17.33;;
48911;SDS011;34722;52.108;5.044;2023-04-06T12:35:34;35.33;;;18.42;;
48911;SDS011;34722;52.108;5.044;2023-04-06T12:38:02;32.97;;;17.60;;
48911;SDS011;34722;52.108;5.044;2023-04-06T12:40:28;34.95;;;18.88;;
48911;SDS011;34722;52.108;5.044;2023-04-06T12:42:56;38.03;;;19.77;;
48911;SDS011;34722;52.108;5.044;2023-04-06T12:45:23;31.00;;;18.88;;
48911;SDS011;34722;52.108;5.044;2023-04-06T12:47:48;42.67;;;20.52;;
48911;SDS011;34722;52.108;5.044;2023-04-06T12:50:15;36.10;;;20.13;;
48911;SDS011;34722;52.108;5.044;2023-04-06T12:52:41;36.65;;;19.38;;
48911;SDS011;34722;52.108;5.044;2023-04-06T12:55:10;40.20;;;20.45;;
48911;SDS011;34722;52.108;5.044;2023-04-06T12:57:35;35.67;;;19.20;;
48911;SDS011;34722;52.108;5.044;2023-04-06T13:00:02;42.17;;;21.25;;
48911;SDS011;34722;52.108;5.044;2023-04-06T13:02:29;37.75;;;21.33;;
48911;SDS011;34722;52.108;5.044;2023-04-06T13:04:55;37.22;;;20.60;;
48911;SDS011;34722;52.108;5.044;2023-04-06T13:07:43;39.05;;;20.73;;
48911;SDS011;34722;52.108;5.044;2023-04-06T13:10:23;40.15;;;21.58;;
48911;SDS011;34722;52.108;5.044;2023-04-06T13:12:52;44.13;;;22.92;;
48911;SDS011;34722;52.108;5.044;2023-04-06T13:15:18;42.67;;;22.23;;
48911;SDS011;34722;52.108;5.044;2023-04-06T13:17:43;47.30;;;22.10;;
48911;SDS011;34722;52.108;5.044;2023-04-06T13:20:09;41.63;;;21.92;;
48911;SDS011;34722;52.108;5.044;2023-04-06T13:22:35;42.35;;;22.70;;
48911;SDS011;34722;52.108;5.044;2023-04-06T13:25:19;36.85;;;20.88;;
48911;SDS011;34722;52.108;5.044;2023-04-06T13:27:45;45.80;;;22.52;;
48911;SDS011;34722;52.108;5.044;2023-04-06T13:30:33;43.10;;;22.63;;
48911;SDS011;34722;52.108;5.044;2023-04-06T13:45:04;47.08;;;24.45;;
48911;SDS011;34722;52.108;5.044;2023-04-06T13:53:17;43.72;;;23.33;;
48911;SDS011;34722;52.108;5.044;2023-04-06T14:26:40;58.22;;;28.15;;
48911;SDS011;34722;52.108;5.044;2023-04-06T14:38:29;49.97;;;25.05;;
48911;SDS011;34722;52.108;5.044;2023-04-06T15:03:44;46.95;;;24.70;;
48911;SDS011;34722;52.108;5.044;2023-04-06T15:08:46;45.78;;;23.80;;
48911;SDS011;34722;52.108;5.044;2023-04-06T15:11:14;47.95;;;23.42;;
48911;SDS011;34722;52.108;5.044;2023-04-06T15:13:40;46.70;;;23.85;;
48911;SDS011;34722;52.108;5.044;2023-04-06T15:16:06;46.50;;;23.98;;
48911;SDS011;34722;52.108;5.044;2023-04-06T15:18:35;48.10;;;23.02;;
48911;SDS011;34722;52.108;5.044;2023-04-06T15:21:03;44.42;;;24.63;;
48911;SDS011;34722;52.108;5.044;2023-04-06T15:25:59;49.55;;;23.80;;
48911;SDS011;34722;52.108;5.044;2023-04-06T15:28:25;43.42;;;22.48;;
48911;SDS011;34722;52.108;5.044;2023-04-06T15:30:51;46.60;;;21.85;;
48911;SDS011;34722;52.108;5.044;2023-04-06T15:33:19;45.60;;;22.92;;
48911;SDS011;34722;52.108;5.044;2023-04-06T15:35:45;45.15;;;22.98;;
48911;SDS011;34722;52.108;5.044;2023-04-06T15:38:14;43.42;;;21.50;;
48911;SDS011;34722;52.108;5.044;2023-04-06T15:40:46;41.63;;;21.48;;
48911;SDS011;34722;52.108;5.044;2023-04-06T15:43:15;41.58;;;23.55;;
48911;SDS011;34722;52.108;5.044;2023-04-06T15:45:41;49.47;;;22.42;;
48911;SDS011;34722;52.108;5.044;2023-04-06T15:48:07;46.75;;;22.90;;
48911;SDS011;34722;52.108;5.044;2023-04-06T15:50:33;42.72;;;22.65;;
48911;SDS011;34722;52.108;5.044;2023-04-06T15:53:11;46.05;;;22.55;;
48911;SDS011;34722;52.108;5.044;2023-04-06T15:55:59;45.22;;;22.75;;
48911;SDS011;34722;52.108;5.044;2023-04-06T15:58:26;41.63;;;22.70;;
48911;SDS011;34722;52.108;5.044;2023-04-06T16:00:52;39.95;;;21.83;;
48911;SDS011;34722;52.108;5.044;2023-04-06T16:03:17;48.33;;;23.42;;
48911;SDS011;34722;52.108;5.044;2023-04-06T16:05:43;46.05;;;23.38;;
48911;SDS011;34722;52.108;5.044;2023-04-06T16:08:10;42.88;;;23.48;;
48911;SDS011;34722;52.108;5.044;2023-04-06T16:10:36;47.38;;;24.85;;
48911;SDS011;34722;52.108;5.044;2023-04-06T16:16:18;52.80;;;25.63;;
48911;SDS011;34722;52.108;5.044;2023-04-06T17:00:13;50.20;;;25.63;;
48911;SDS011;34722;52.108;5.044;2023-04-06T17:02:39;47.25;;;24.52;;
48911;SDS011;34722;52.108;5.044;2023-04-06T17:08:14;47.33;;;25.60;;
48911;SDS011;34722;52.108;5.044;2023-04-06T17:10:40;46.45;;;26.05;;
48911;SDS011;34722;52.108;5.044;2023-04-06T17:33:06;50.10;;;26.30;;
48911;SDS011;34722;52.108;5.044;2023-04-06T17:43:26;58.03;;;29.52;;
48911;SDS011;34722;52.108;5.044;2023-04-06T17:45:52;57.78;;;28.25;;
48911;SDS011;34722;52.108;5.044;2023-04-06T17:48:36;59.17;;;29.52;;
48911;SDS011;34722;52.108;5.044;2023-04-06T17:54:34;61.65;;;28.90;;
48911;SDS011;34722;52.108;5.044;2023-04-06T18:03:44;58.85;;;30.23;;
48911;SDS011;34722;52.108;5.044;2023-04-06T18:11:21;72.40;;;31.85;;
48911;SDS011;34722;52.108;5.044;2023-04-06T18:13:47;62.45;;;30.75;;
48911;SDS011;34722;52.108;5.044;2023-04-06T18:16:13;59.67;;;30.92;;
48911;SDS011;34722;52.108;5.044;2023-04-06T18:18:41;63.25;;;31.15;;
48911;SDS011;34722;52.108;5.044;2023-04-06T18:33:55;61.42;;;30.08;;
48911;SDS011;34722;52.108;5.044;2023-04-06T18:36:21;62.75;;;32.28;;
48911;SDS011;34722;52.108;5.044;2023-04-06T18:55:54;66.18;;;32.10;;
48911;SDS011;34722;52.108;5.044;2023-04-06T19:18:02;76.90;;;35.78;;
48911;SDS011;34722;52.108;5.044;2023-04-06T19:20:44;78.07;;;35.95;;
48911;SDS011;34722;52.108;5.044;2023-04-06T19:23:09;80.15;;;35.78;;
48911;SDS011;34722;52.108;5.044;2023-04-06T19:41:04;82.60;;;39.65;;
48911;SDS011;34722;52.108;5.044;2023-04-06T19:48:41;94.15;;;41.55;;
48911;SDS011;34722;52.108;5.044;2023-04-06T21:06:37;73.90;;;31.38;;
48911;SDS011;34722;52.108;5.044;2023-04-06T21:12:25;53.15;;;23.52;;
48911;SDS011;34722;52.108;5.044;2023-04-06T21:14:52;52.75;;;21.95;;
48911;SDS011;34722;52.108;5.044;2023-04-06T21:25:04;44.65;;;17.27;;
48911;SDS011;34722;52.108;5.044;2023-04-06T21:30:35;33.80;;;14.10;;
48911;SDS011;34722;52.108;5.044;2023-04-06T21:33:05;30.88;;;14.50;;
48911;SDS011;34722;52.108;5.044;2023-04-06T21:35:37;32.28;;;13.50;;
48911;SDS011;34722;52.108;5.044;2023-04-06T21:41:29;27.58;;;11.65;;
48911;SDS011;34722;52.108;5.044;2023-04-06T21:43:58;26.73;;;11.82;;
48911;SDS011;34722;52.108;5.044;2023-04-06T21:46:24;22.42;;;10.63;;
48911;SDS011;34722;52.108;5.044;2023-04-06T21:56:33;26.77;;;10.98;;
48911;SDS011;34722;52.108;5.044;2023-04-06T21:59:01;29.90;;;11.40;;
48911;SDS011;34722;52.108;5.044;2023-04-06T22:32:11;22.92;;;7.45;;
48911;SDS011;34722;52.108;5.044;2023-04-06T22:45:05;24.00;;;8.45;;
